Time;durP1;ratioP1;P1;durP2;ratioP2;P2;SDS_P1;SDS_P2;PMS_P1;PMS_P2;Temp;Humidity;BMP_temperature;BMP_pressure;BME280_temperature;BME280_humidity;BME280_pressure;Samples;Min_cycle;Max_cycle;Signal;HPM_P1;HPM_P2
2024/02/01 00:01:49;;;;;;;5.95;3.45;;;13.70;74.10;;;;;;2286083;56;20941;-67
2024/02/01 00:04:15;;;;;;;6.22;3.17;;;13.70;74.10;;;;;;2286634;55;20949;-66
2024/02/01 00:06:50;;;;;;;8.00;4.37;;;13.70;74.00;;;;;;2285778;55;21702;-66
2024/02/01 00:09:19;;;;;;;5.78;3.75;;;13.80;74.10;;;;;;2286544;55;21080;-66
2024/02/01 00:11:45;;;;;;;6.55;3.67;;;13.80;74.00;;;;;;2285533;55;20970;-67
2024/02/01 00:14:12;;;;;;;5.30;3.30;;;13.80;73.90;;;;;;2519519;54;20941;-67
2024/02/01 00:16:41;;;;;;;6.40;3.72;;;13.80;73.90;;;;;;2285641;55;20929;-66
2024/02/01 00:19:08;;;;;;;4.90;3.17;;;13.80;73.90;;;;;;2285810;55;20989;-67
2024/02/01 00:21:35;;;;;;;6.53;3.85;;;13.80;73.80;;;;;;2520464;54;21028;-67
2024/02/01 00:24:01;;;;;;;5.85;3.53;;;13.80;74.00;;;;;;2520001;54;20921;-67
2024/02/01 00:26:27;;;;;;;7.20;3.53;;;13.80;73.80;;;;;;2286559;56;21365;-67
2024/02/01 00:28:54;;;;;;;5.40;3.28;;;13.80;73.80;;;;;;2286174;55;21376;-67
2024/02/01 00:31:20;;;;;;;7.85;3.60;;;13.80;73.70;;;;;;2286715;55;20945;-66
2024/02/01 00:33:47;;;;;;;6.65;3.50;;;13.80;73.60;;;;;;2518709;54;21005;-66
2024/02/01 00:36:13;;;;;;;7.07;3.15;;;13.80;73.60;;;;;;2285956;55;20969;-66
2024/02/01 00:38:40;;;;;;;7.40;3.65;;;13.80;73.60;;;;;;2285750;56;21855;-67
2024/02/01 00:41:06;;;;;;;5.87;2.97;;;13.80;73.60;;;;;;2286768;55;21013;-67
2024/02/01 00:43:32;;;;;;;5.68;3.87;;;13.80;73.60;;;;;;2285203;55;21486;-67
2024/02/01 00:45:58;;;;;;;6.62;4.05;;;13.80;73.60;;;;;;2520139;54;21002;-68
2024/02/01 00:48:25;;;;;;;7.37;3.87;;;13.80;73.60;;;;;;2520455;54;20929;-67
2024/02/01 00:50:51;;;;;;;6.65;4.12;;;13.80;73.50;;;;;;2285724;55;20969;-66
2024/02/01 00:53:18;;;;;;;7.43;4.10;;;13.80;73.50;;;;;;2286332;56;21596;-67
2024/02/01 00:55:44;;;;;;;6.15;3.78;;;13.80;73.50;;;;;;2285819;55;21017;-67
2024/02/01 00:58:13;;;;;;;6.70;3.55;;;13.70;73.30;;;;;;2285251;56;21049;-67
2024/02/01 01:00:40;;;;;;;5.82;3.55;;;13.70;73.20;;;;;;2513772;54;20988;-67
2024/02/01 01:03:06;;;;;;;6.55;4.00;;;13.70;73.30;;;;;;2284358;55;20926;-67
2024/02/01 01:05:33;;;;;;;7.15;4.00;;;13.70;73.30;;;;;;2286425;55;21024;-67
2024/02/01 01:07:59;;;;;;;5.93;3.67;;;13.70;73.30;;;;;;2284827;55;21526;-66
2024/02/01 01:10:26;;;;;;;4.57;3.03;;;13.70;73.30;;;;;;2520062;54;21000;-66
2024/02/01 01:12:55;;;;;;;6.97;3.62;;;13.70;73.30;;;;;;2519786;54;20949;-67
2024/02/01 01:15:21;;;;;;;5.53;3.60;;;13.70;73.30;;;;;;2285756;55;20986;-66
2024/02/01 01:17:49;;;;;;;5.82;3.53;;;13.70;73.30;;;;;;2519425;54;20933;-67
2024/02/01 01:20:15;;;;;;;5.45;3.58;;;13.70;73.30;;;;;;2285984;55;21052;-66
2024/02/01 01:22:41;;;;;;;6.45;3.33;;;13.60;73.10;;;;;;2286791;55;20954;-67
2024/02/01 01:25:08;;;;;;;5.70;3.17;;;13.60;73.10;;;;;;2280465;56;20914;-67
2024/02/01 01:27:34;;;;;;;5.80;3.47;;;13.60;73.10;;;;;;2286266;55;20953;-67
2024/02/01 01:30:00;;;;;;;6.70;3.55;;;13.60;73.00;;;;;;2285893;55;21089;-67
2024/02/01 01:32:27;;;;;;;5.72;3.78;;;13.60;73.00;;;;;;2285760;55;21448;-67
2024/02/01 01:34:54;;;;;;;6.32;3.75;;;13.50;72.80;;;;;;2285603;55;20953;-66
2024/02/01 01:37:20;;;;;;;5.40;3.33;;;13.50;72.80;;;;;;2282121;56;20957;-67
2024/02/01 01:39:47;;;;;;;8.27;3.70;;;13.50;72.80;;;;;;2285562;55;20997;-67
2024/02/01 01:42:13;;;;;;;6.53;4.07;;;13.50;72.80;;;;;;2285690;55;21229;-68
2024/02/01 01:44:40;;;;;;;6.57;3.72;;;13.50;72.70;;;;;;2519583;54;21710;-67
2024/02/01 01:47:07;;;;;;;7.45;4.10;;;13.40;72.50;;;;;;2282107;55;21881;-68
2024/02/01 01:49:33;;;;;;;6.03;3.53;;;13.40;72.50;;;;;;2519601;54;20929;-67
2024/02/01 01:52:00;;;;;;;7.32;4.05;;;13.40;72.60;;;;;;2286253;55;20953;-67
2024/02/01 01:54:26;;;;;;;7.28;3.97;;;13.40;72.60;;;;;;2287509;55;21391;-66
2024/02/01 01:56:52;;;;;;;7.95;4.07;;;13.30;72.60;;;;;;2519979;54;20969;-67
2024/02/01 01:59:24;;;;;;;7.60;4.25;;;13.30;72.60;;;;;;2286599;55;20933;-66
2024/02/01 02:01:56;;;;;;;7.35;3.87;;;13.30;72.60;;;;;;2284352;55;20925;-66
2024/02/01 02:04:22;;;;;;;6.70;4.07;;;13.30;72.70;;;;;;2286236;55;20961;-67
2024/02/01 02:06:49;;;;;;;7.62;4.28;;;13.30;72.80;;;;;;2519606;54;21259;-67
2024/02/01 02:09:15;;;;;;;6.62;3.80;;;13.20;72.80;;;;;;2519291;54;20949;-68
2024/02/01 02:11:44;;;;;;;7.20;4.32;;;13.20;72.80;;;;;;2520096;54;20985;-67
2024/02/01 02:14:13;;;;;;;7.30;4.85;;;13.20;72.80;;;;;;2286552;55;20941;-67
2024/02/01 02:16:40;;;;;;;8.00;4.50;;;13.20;72.90;;;;;;2284687;55;20922;-66
2024/02/01 02:19:09;;;;;;;8.52;4.43;;;13.10;72.80;;;;;;2285666;55;20941;-67
2024/02/01 02:21:43;;;;;;;6.75;3.90;;;13.10;72.90;;;;;;2519469;54;21836;-66
2024/02/01 02:24:10;;;;;;;6.45;3.60;;;13.10;73.00;;;;;;2286147;55;21044;-67
2024/02/01 02:26:36;;;;;;;7.15;3.92;;;13.10;73.20;;;;;;2285134;55;20940;-66
2024/02/01 02:29:03;;;;;;;6.35;4.03;;;13.10;73.30;;;;;;2281945;55;21081;-68
2024/02/01 02:31:29;;;;;;;7.75;4.53;;;13.10;73.30;;;;;;2520586;54;21855;-67
2024/02/01 02:33:58;;;;;;;7.10;4.03;;;13.10;73.30;;;;;;2285757;55;21249;-67
2024/02/01 02:36:25;;;;;;;6.00;3.60;;;13.10;73.40;;;;;;2520165;54;20993;-67
2024/02/01 02:38:52;;;;;;;6.45;4.00;;;13.10;73.40;;;;;;2519925;54;20929;-66
2024/02/01 02:41:18;;;;;;;8.35;4.57;;;13.10;73.40;;;;;;2521122;54;21493;-66
2024/02/01 02:43:48;;;;;;;10.57;4.70;;;13.10;73.40;;;;;;2286482;55;21061;-66
2024/02/01 02:46:14;;;;;;;8.13;4.15;;;13.10;73.40;;;;;;2285407;55;20966;-66
2024/02/01 02:48:40;;;;;;;6.50;3.83;;;13.10;73.40;;;;;;2286296;55;20965;-66
2024/02/01 02:51:07;;;;;;;6.80;3.50;;;13.10;73.50;;;;;;2285008;55;20974;-67
2024/02/01 02:53:34;;;;;;;7.15;4.15;;;13.20;73.60;;;;;;2284106;55;20968;-66
2024/02/01 02:56:00;;;;;;;7.45;4.10;;;13.20;73.60;;;;;;2284097;55;20937;-67
2024/02/01 02:58:27;;;;;;;7.18;4.28;;;13.20;73.60;;;;;;2519932;54;20997;-67
2024/02/01 03:00:57;;;;;;;7.78;3.92;;;13.20;73.60;;;;;;2287700;55;20944;-66
2024/02/01 03:03:24;;;;;;;7.60;4.12;;;13.20;73.60;;;;;;2278762;56;21485;-66
2024/02/01 03:05:50;;;;;;;6.40;4.22;;;13.20;73.50;;;;;;2285143;55;20986;-66
2024/02/01 03:08:18;;;;;;;7.10;4.12;;;13.20;73.50;;;;;;2515968;54;21034;-67
2024/02/01 03:10:45;;;;;;;5.68;3.65;;;13.20;73.50;;;;;;2281714;56;20980;-67
2024/02/01 03:13:11;;;;;;;6.37;3.67;;;13.20;73.40;;;;;;2282892;55;21062;-67
2024/02/01 03:15:38;;;;;;;6.43;3.30;;;13.20;73.40;;;;;;2519025;54;21804;-66
2024/02/01 03:18:05;;;;;;;6.82;3.97;;;13.20;73.40;;;;;;2285988;55;21028;-67
2024/02/01 03:20:32;;;;;;;6.28;3.42;;;13.20;73.40;;;;;;2520614;54;20969;-67
2024/02/01 03:22:58;;;;;;;6.62;3.53;;;13.20;73.30;;;;;;2519021;54;21037;-66
2024/02/01 03:25:32;;;;;;;6.50;3.40;;;13.20;73.40;;;;;;2520809;54;21817;-67
2024/02/01 03:28:00;;;;;;;6.55;3.78;;;13.20;73.30;;;;;;2288692;55;21050;-67
2024/02/01 03:30:28;;;;;;;6.95;3.60;;;13.20;73.10;;;;;;2513210;54;21372;-67
2024/02/01 03:32:55;;;;;;;6.50;4.07;;;13.20;73.10;;;;;;2285889;55;20940;-67
2024/02/01 03:35:23;;;;;;;5.62;3.58;;;13.20;73.10;;;;;;2286346;55;20973;-66
2024/02/01 03:37:50;;;;;;;6.22;3.75;;;13.20;73.10;;;;;;2285460;55;20985;-67
2024/02/01 03:40:20;;;;;;;5.82;3.47;;;13.20;73.10;;;;;;2515403;54;21527;-66
2024/02/01 03:42:47;;;;;;;6.20;3.25;;;13.20;73.10;;;;;;2286334;55;20925;-66
2024/02/01 03:45:13;;;;;;;6.07;3.53;;;13.20;73.10;;;;;;2279162;56;20941;-67
2024/02/01 03:47:40;;;;;;;4.80;2.95;;;13.20;73.10;;;;;;2285848;55;21189;-67
2024/02/01 03:50:08;;;;;;;5.60;3.17;;;13.10;73.00;;;;;;2520862;54;21049;-67
2024/02/01 03:52:37;;;;;;;4.78;3.10;;;13.10;73.00;;;;;;2285377;55;21300;-67
2024/02/01 03:55:04;;;;;;;5.37;3.28;;;13.10;73.00;;;;;;2287508;55;21030;-66
2024/02/01 03:57:30;;;;;;;4.72;2.87;;;13.10;73.10;;;;;;2280470;55;21822;-66
2024/02/01 03:59:57;;;;;;;4.53;2.95;;;13.10;73.20;;;;;;2285799;55;20901;-66
2024/02/01 04:02:25;;;;;;;4.90;2.85;;;13.20;73.30;;;;;;2286843;55;21443;-66
2024/02/01 04:04:51;;;;;;;5.87;3.00;;;13.20;73.40;;;;;;2285916;55;20985;-67
2024/02/01 04:07:19;;;;;;;4.65;2.80;;;13.20;73.40;;;;;;2285789;55;21450;-67
2024/02/01 04:09:46;;;;;;;5.93;3.12;;;13.20;73.40;;;;;;2286437;55;20938;-66
2024/02/01 04:12:14;;;;;;;6.47;2.83;;;13.20;73.40;;;;;;2520139;54;20938;-66
2024/02/01 04:14:41;;;;;;;7.82;3.10;;;13.20;73.50;;;;;;2286719;55;20930;-66
2024/02/01 04:17:07;;;;;;;4.43;2.97;;;13.20;73.50;;;;;;2286513;55;20949;-67
2024/02/01 04:19:35;;;;;;;6.43;3.12;;;13.20;73.50;;;;;;2518943;54;21803;-67
2024/02/01 04:22:01;;;;;;;5.22;2.65;;;13.30;73.60;;;;;;2280534;56;21780;-66
2024/02/01 04:24:27;;;;;;;4.68;2.70;;;13.30;73.60;;;;;;2520702;54;21005;-66
2024/02/01 04:26:54;;;;;;;5.40;2.80;;;13.30;73.70;;;;;;2520027;54;21021;-67
2024/02/01 04:29:20;;;;;;;6.55;3.20;;;13.30;73.60;;;;;;2520231;54;21414;-67
2024/02/01 04:31:47;;;;;;;5.15;2.87;;;13.30;73.60;;;;;;2285736;55;20933;-66
2024/02/01 04:34:13;;;;;;;5.25;3.00;;;13.30;73.60;;;;;;2520653;54;20946;-67
2024/02/01 04:36:40;;;;;;;4.60;2.60;;;13.40;73.60;;;;;;2519716;54;21791;-67
2024/02/01 04:39:08;;;;;;;5.22;3.10;;;13.30;73.50;;;;;;2285692;55;21076;-67
2024/02/01 04:41:35;;;;;;;5.55;3.15;;;13.40;73.60;;;;;;2513638;54;21117;-67
2024/02/01 04:44:01;;;;;;;5.32;3.28;;;13.40;73.50;;;;;;2282054;55;20945;-68
2024/02/01 04:46:28;;;;;;;5.22;2.75;;;13.40;73.50;;;;;;2520724;54;20964;-66
2024/02/01 04:48:55;;;;;;;5.12;3.42;;;13.40;73.50;;;;;;2285758;55;20925;-67
2024/02/01 04:51:22;;;;;;;5.35;2.67;;;13.40;73.50;;;;;;2285828;55;20989;-67
2024/02/01 04:53:48;;;;;;;4.60;2.55;;;13.40;73.40;;;;;;2520269;54;21667;-67
2024/02/01 04:56:15;;;;;;;4.30;2.65;;;13.50;73.60;;;;;;2519569;54;21573;-67
2024/02/01 04:58:41;;;;;;;4.97;2.33;;;13.50;73.60;;;;;;2278510;56;20949;-67
2024/02/01 05:01:09;;;;;;;5.10;2.40;;;13.50;73.60;;;;;;2285232;55;20981;-67
2024/02/01 05:03:37;;;;;;;5.32;2.78;;;13.50;73.60;;;;;;2520304;54;21024;-67
2024/02/01 05:06:07;;;;;;;5.30;3.05;;;13.50;73.60;;;;;;2286400;56;20917;-67
2024/02/01 05:08:34;;;;;;;6.50;3.30;;;13.50;73.50;;;;;;2286138;55;20957;-67
2024/02/01 05:11:00;;;;;;;6.53;3.72;;;13.50;73.50;;;;;;2520133;54;21021;-67
2024/02/01 05:13:30;;;;;;;7.07;3.80;;;13.50;73.40;;;;;;2520706;54;20973;-67
2024/02/01 05:15:58;;;;;;;5.87;4.05;;;13.50;73.40;;;;;;2519951;54;20985;-67
2024/02/01 05:18:24;;;;;;;7.80;3.90;;;13.50;73.20;;;;;;2519763;54;20977;-67
2024/02/01 05:20:53;;;;;;;7.30;4.30;;;13.50;73.30;;;;;;2286044;55;21033;-67
2024/02/01 05:23:22;;;;;;;7.47;4.32;;;13.50;73.30;;;;;;2520523;54;20930;-67
2024/02/01 05:25:50;;;;;;;6.85;4.57;;;13.50;73.10;;;;;;2286527;55;21416;-67
2024/02/01 05:28:17;;;;;;;7.00;4.47;;;13.50;73.30;;;;;;2519636;54;20938;-67
2024/02/01 05:30:45;;;;;;;7.43;4.40;;;13.50;73.20;;;;;;2285648;55;21790;-66
2024/02/01 05:33:11;;;;;;;7.80;4.32;;;13.50;73.20;;;;;;2520335;54;20937;-67
2024/02/01 05:35:37;;;;;;;5.65;3.47;;;13.50;73.20;;;;;;2286103;55;21065;-67
2024/02/01 05:38:06;;;;;;;6.28;3.33;;;13.50;73.20;;;;;;2285981;55;20937;-67
2024/02/01 05:40:36;;;;;;;5.30;3.40;;;13.50;73.20;;;;;;2286295;55;20976;-67
2024/02/01 05:43:03;;;;;;;5.68;3.40;;;13.50;73.10;;;;;;2520310;54;21009;-67
2024/02/01 05:45:30;;;;;;;5.55;3.53;;;13.50;73.20;;;;;;2286496;55;20957;-66
2024/02/01 05:47:56;;;;;;;9.00;4.80;;;13.50;73.10;;;;;;2286034;55;20997;-67
2024/02/01 05:50:22;;;;;;;7.60;4.53;;;13.50;73.10;;;;;;2520066;54;21347;-67
2024/02/01 05:52:49;;;;;;;8.95;5.12;;;13.50;73.00;;;;;;2520981;54;21005;-67
2024/02/01 05:55:15;;;;;;;9.93;5.47;;;13.50;72.90;;;;;;2520216;54;21803;-67
2024/02/01 05:57:42;;;;;;;10.57;6.53;;;13.50;72.90;;;;;;2285791;55;20930;-67
2024/02/01 06:00:12;;;;;;;8.98;5.60;;;13.50;72.90;;;;;;2285538;55;21592;-67
2024/02/01 06:02:38;;;;;;;10.23;6.15;;;13.50;72.90;;;;;;2286455;55;21378;-67
2024/02/01 06:05:05;;;;;;;9.73;6.07;;;13.50;73.00;;;;;;2520122;54;21804;-67
2024/02/01 06:07:31;;;;;;;9.32;5.10;;;13.40;72.90;;;;;;2286084;55;20996;-67
2024/02/01 06:09:59;;;;;;;10.43;6.20;;;13.40;73.00;;;;;;2285413;55;20996;-67
2024/02/01 06:12:27;;;;;;;7.97;5.00;;;13.40;72.90;;;;;;2519672;54;21028;-67
2024/02/01 06:14:55;;;;;;;8.75;5.87;;;13.40;73.10;;;;;;2286366;55;20998;-66
2024/02/01 06:17:21;;;;;;;8.85;5.37;;;13.40;73.20;;;;;;2286056;55;20933;-68
2024/02/01 06:19:47;;;;;;;8.98;6.10;;;13.40;73.20;;;;;;2285907;55;21710;-67
2024/02/01 06:22:14;;;;;;;8.82;5.93;;;13.40;73.20;;;;;;2285529;55;21446;-66
2024/02/01 06:24:41;;;;;;;8.57;5.62;;;13.40;73.30;;;;;;2281909;55;20962;-66
2024/02/01 06:27:08;;;;;;;11.68;6.93;;;13.40;73.30;;;;;;2519624;54;20945;-67
2024/02/01 06:29:37;;;;;;;10.18;6.62;;;13.40;73.30;;;;;;2285797;55;21565;-67
2024/02/01 06:32:12;;;;;;;10.05;6.50;;;13.40;73.40;;;;;;2283878;55;21609;-66
2024/02/01 06:34:38;;;;;;;11.10;6.45;;;13.40;73.40;;;;;;2281263;55;20925;-67
2024/02/01 06:37:07;;;;;;;9.90;6.55;;;13.40;73.40;;;;;;2283143;55;20957;-67
2024/02/01 06:42:31;;;;;;;10.60;6.03;;;13.40;73.40;;;;;;2277570;56;20982;-68
2024/02/01 06:45:28;;;;;;;9.85;5.87;;;13.40;73.30;;;;;;2283749;55;20945;-67
2024/02/01 06:48:04;;;;;;;9.32;5.82;;;13.40;73.30;;;;;;2283465;55;21008;-68
2024/02/01 06:50:46;;;;;;;10.18;6.07;;;13.40;73.30;;;;;;2516826;54;20961;-67
2024/02/01 06:53:19;;;;;;;10.23;6.15;;;13.40;73.30;;;;;;2283719;55;20964;-67
2024/02/01 06:55:57;;;;;;;11.48;6.80;;;13.40;73.10;;;;;;2514435;54;22147;-67
2024/02/01 06:58:39;;;;;;;10.63;6.62;;;13.40;73.00;;;;;;2283520;55;20988;-68
2024/02/01 07:02:02;;;;;;;8.73;6.28;;;13.30;73.00;;;;;;2284835;55;20956;-68
2024/02/01 07:04:42;;;;;;;9.05;6.12;;;13.40;73.10;;;;;;2514526;54;21505;-67
2024/02/01 07:07:26;;;;;;;10.82;6.65;;;13.30;73.10;;;;;;2283605;55;20973;-67
2024/02/01 07:10:08;;;;;;;10.98;6.95;;;13.30;73.20;;;;;;2283760;55;21021;-68
2024/02/01 07:12:42;;;;;;;12.23;6.37;;;13.30;73.20;;;;;;2515099;54;21074;-67
2024/02/01 07:21:29;;;;;;;7.28;4.87;;;13.30;73.20;;;;;;2283499;55;20921;-68
2024/02/01 07:24:17;;;;;;;7.78;5.47;;;13.30;73.30;;;;;;2283711;55;20985;-68
2024/02/01 07:26:59;;;;;;;11.25;6.25;;;13.30;73.30;;;;;;2517944;54;20953;-67
2024/02/01 07:59:47;;;;;;;10.40;6.97;;;13.10;73.30;;;;;;2516844;54;20945;-67
2024/02/01 08:02:24;;;;;;;9.02;6.10;;;13.00;73.20;;;;;;2283520;55;21711;-67
2024/02/01 08:07:44;;;;;;;9.15;5.55;;;13.00;73.30;;;;;;2516263;54;21657;-69
2024/02/01 08:10:11;;;;;;;9.15;6.15;;;13.00;73.30;;;;;;2282482;55;21036;-68
2024/02/01 08:12:38;;;;;;;10.30;6.35;;;13.00;73.40;;;;;;2514143;54;20921;-69
2024/02/01 08:15:05;;;;;;;9.05;6.12;;;13.00;73.30;;;;;;2511153;54;20982;-68
2024/02/01 08:17:31;;;;;;;9.88;6.15;;;13.00;73.30;;;;;;2278412;55;21000;-69
2024/02/01 08:19:58;;;;;;;10.98;6.78;;;12.90;73.20;;;;;;2512446;54;21002;-68
2024/02/01 08:22:24;;;;;;;11.93;7.55;;;13.00;73.40;;;;;;2279812;55;21820;-70
2024/02/01 08:24:54;;;;;;;13.00;7.43;;;12.90;73.30;;;;;;2284300;55;20941;-68
2024/02/01 08:27:20;;;;;;;14.70;9.65;;;12.90;73.30;;;;;;2283924;55;20938;-67
2024/02/01 08:29:47;;;;;;;16.87;11.60;;;12.90;73.40;;;;;;2516875;54;20921;-69
2024/02/01 08:32:19;;;;;;;16.80;11.63;;;12.90;74.10;;;;;;2281159;55;21102;-68
2024/02/01 08:34:47;;;;;;;14.20;9.70;;;12.90;73.50;;;;;;2516059;54;21750;-69
2024/02/01 08:37:13;;;;;;;11.70;8.55;;;12.90;73.50;;;;;;2284283;55;20977;-69
2024/02/01 08:39:45;;;;;;;11.95;7.43;;;12.80;73.40;;;;;;2282926;55;20969;-68
2024/02/01 08:42:12;;;;;;;11.18;7.30;;;12.80;73.50;;;;;;2517590;54;20953;-68
2024/02/01 08:44:38;;;;;;;10.00;6.75;;;12.80;73.50;;;;;;2283730;55;20985;-68
2024/02/01 08:47:05;;;;;;;12.85;7.03;;;12.80;74.30;;;;;;2283235;55;21025;-68
2024/02/01 08:49:38;;;;;;;10.52;6.57;;;12.80;73.60;;;;;;2283237;55;21487;-70
2024/02/01 08:52:05;;;;;;;9.20;5.80;;;12.80;73.60;;;;;;2510910;54;21049;-70
2024/02/01 08:54:32;;;;;;;8.48;5.68;;;12.70;73.50;;;;;;2277365;55;20964;-68
2024/02/01 08:56:59;;;;;;;9.55;5.55;;;12.80;73.70;;;;;;2283764;55;21151;-68
2024/02/01 08:59:27;;;;;;;10.88;6.10;;;12.70;73.70;;;;;;2283348;55;20925;-68
2024/02/01 09:01:53;;;;;;;10.40;6.20;;;12.70;73.70;;;;;;2514259;54;21038;-67
2024/02/01 09:04:20;;;;;;;9.05;5.10;;;12.70;73.80;;;;;;2277988;56;21382;-69
2024/02/01 09:06:53;;;;;;;6.47;4.55;;;12.70;73.90;;;;;;2283733;55;21962;-67
2024/02/01 09:09:28;;;;;;;7.80;4.45;;;12.70;74.00;;;;;;2516907;54;21549;-67
2024/02/01 09:11:55;;;;;;;7.93;4.25;;;12.70;74.00;;;;;;2280559;55;21025;-67
2024/02/01 09:14:21;;;;;;;6.93;4.10;;;12.70;74.10;;;;;;2516872;54;21303;-67
2024/02/01 09:16:47;;;;;;;8.32;4.65;;;12.70;74.10;;;;;;2283857;55;20953;-67
2024/02/01 09:19:14;;;;;;;9.43;4.18;;;12.70;74.10;;;;;;2284351;55;21490;-70
2024/02/01 09:21:42;;;;;;;5.95;3.90;;;12.70;74.20;;;;;;2518021;54;20941;-69
2024/02/01 09:24:11;;;;;;;6.10;3.85;;;12.70;74.20;;;;;;2284292;55;21486;-67
2024/02/01 09:26:41;;;;;;;7.70;4.22;;;12.70;74.20;;;;;;2283411;55;21300;-68
2024/02/01 09:29:13;;;;;;;6.87;3.78;;;12.70;74.10;;;;;;2517931;54;21368;-68
2024/02/01 09:31:40;;;;;;;6.43;4.00;;;12.70;74.10;;;;;;2281146;55;20961;-68
2024/02/01 09:34:08;;;;;;;5.50;3.87;;;12.70;74.20;;;;;;2282963;55;21004;-69
2024/02/01 09:36:35;;;;;;;5.50;3.45;;;12.70;74.20;;;;;;2517905;54;21001;-68
2024/02/01 09:39:02;;;;;;;6.22;3.87;;;12.70;74.30;;;;;;2283764;56;20953;-70
2024/02/01 09:41:28;;;;;;;6.93;3.60;;;12.70;74.30;;;;;;2516394;54;20936;-67
2024/02/01 09:43:57;;;;;;;5.55;3.53;;;12.70;74.30;;;;;;2283920;55;21703;-68
2024/02/01 09:46:24;;;;;;;7.00;4.10;;;12.70;74.30;;;;;;2283625;55;20976;-68
2024/02/01 09:48:52;;;;;;;8.60;4.43;;;12.70;74.40;;;;;;2516977;54;21463;-68
2024/02/01 09:51:20;;;;;;;8.88;5.10;;;12.70;74.50;;;;;;2514444;54;21041;-66
2024/02/01 09:53:47;;;;;;;9.15;4.43;;;12.70;74.50;;;;;;2281632;55;21853;-68
2024/02/01 09:56:14;;;;;;;8.05;4.32;;;12.70;74.50;;;;;;2284072;55;20949;-69
2024/02/01 09:58:41;;;;;;;7.15;3.92;;;12.70;74.50;;;;;;2282306;55;21331;-70
2024/02/01 10:01:10;;;;;;;6.68;4.43;;;12.80;74.70;;;;;;2517894;54;21519;-69
2024/02/01 10:03:44;;;;;;;6.25;4.43;;;12.80;74.70;;;;;;2281830;55;20965;-69
2024/02/01 10:06:13;;;;;;;6.40;4.20;;;12.80;74.60;;;;;;2517565;54;20965;-71
2024/02/01 10:08:41;;;;;;;8.15;4.32;;;12.80;74.70;;;;;;2282707;55;21490;-68
2024/02/01 10:11:07;;;;;;;8.48;4.70;;;12.80;74.70;;;;;;2280965;55;21371;-68
2024/02/01 10:13:34;;;;;;;7.80;4.60;;;12.80;74.70;;;;;;2515573;54;21053;-70
2024/02/01 10:16:01;;;;;;;5.93;3.92;;;12.80;74.70;;;;;;2517224;54;20926;-68
2024/02/01 10:18:27;;;;;;;6.75;4.32;;;12.80;74.70;;;;;;2283204;55;21444;-69
2024/02/01 10:20:59;;;;;;;7.10;4.28;;;12.90;74.80;;;;;;2283602;56;20921;-69
2024/02/01 10:23:26;;;;;;;7.72;4.95;;;12.90;74.90;;;;;;2284495;55;20925;-70
2024/02/01 10:25:55;;;;;;;7.55;4.47;;;12.90;74.80;;;;;;2513115;54;20998;-70
2024/02/01 10:28:23;;;;;;;7.05;4.12;;;12.90;74.80;;;;;;2279452;55;21049;-67
2024/02/01 10:30:50;;;;;;;8.43;5.15;;;12.90;74.90;;;;;;2281052;55;21358;-69
2024/02/01 10:33:25;;;;;;;7.53;5.32;;;12.90;74.90;;;;;;2515226;54;21104;-68
2024/02/01 10:35:56;;;;;;;7.62;5.30;;;12.90;74.80;;;;;;2279741;55;21058;-69
2024/02/01 10:38:23;;;;;;;7.35;5.05;;;12.90;74.80;;;;;;2517020;54;22020;-67
2024/02/01 10:41:01;;;;;;;10.20;5.50;;;12.90;74.80;;;;;;2283379;55;21025;-67
2024/02/01 10:43:31;;;;;;;8.35;5.68;;;13.00;74.80;;;;;;2284261;55;20994;-70
2024/02/01 10:46:10;;;;;;;7.57;5.07;;;13.00;74.90;;;;;;2513186;54;20993;-68
2024/02/01 10:48:46;;;;;;;9.57;5.45;;;13.00;74.80;;;;;;2516316;54;21213;-69
2024/02/01 10:51:13;;;;;;;8.98;4.72;;;13.00;74.80;;;;;;2515359;54;20941;-69
2024/02/01 10:53:47;;;;;;;10.15;5.40;;;13.00;74.90;;;;;;2284987;55;20990;-69
2024/02/01 10:56:16;;;;;;;7.47;5.03;;;13.00;74.90;;;;;;2279534;55;21020;-68
2024/02/01 10:58:49;;;;;;;6.68;4.60;;;13.00;74.90;;;;;;2283278;55;21084;-68
2024/02/01 11:01:19;;;;;;;8.00;4.75;;;13.10;75.00;;;;;;2284293;55;21792;-70
2024/02/01 11:04:06;;;;;;;6.25;4.32;;;13.10;75.00;;;;;;2517053;54;21025;-68
2024/02/01 11:06:33;;;;;;;6.18;3.83;;;13.10;74.80;;;;;;2517307;54;20941;-68
2024/02/01 11:09:18;;;;;;;8.70;4.93;;;13.10;75.10;;;;;;2515676;54;21569;-69
2024/02/01 11:11:52;;;;;;;8.77;4.70;;;13.10;75.10;;;;;;2514655;54;21684;-69
2024/02/01 11:14:20;;;;;;;6.97;4.90;;;13.10;74.90;;;;;;2283940;55;21013;-68
2024/02/01 11:16:50;;;;;;;7.87;5.87;;;13.20;75.20;;;;;;2510696;54;21009;-69
2024/02/01 11:19:29;;;;;;;6.82;4.95;;;13.20;75.10;;;;;;2514327;54;20960;-69
2024/02/01 11:21:57;;;;;;;6.93;4.55;;;13.20;75.00;;;;;;2283847;55;20989;-70
2024/02/01 11:24:32;;;;;;;7.68;4.95;;;13.20;75.20;;;;;;2517431;54;21029;-69
2024/02/01 11:27:09;;;;;;;9.25;5.72;;;13.20;75.20;;;;;;2283647;55;20997;-68
2024/02/01 11:29:37;;;;;;;6.70;4.82;;;13.30;75.30;;;;;;2281257;55;21721;-69
2024/02/01 11:32:05;;;;;;;7.32;5.20;;;13.30;75.30;;;;;;2511463;54;20942;-69
2024/02/01 11:34:33;;;;;;;6.57;4.20;;;13.30;75.30;;;;;;2282273;55;20976;-69
2024/02/01 11:37:00;;;;;;;6.85;3.58;;;13.30;75.30;;;;;;2285830;55;20957;-68
2024/02/01 11:39:29;;;;;;;4.78;3.28;;;13.30;75.30;;;;;;2286961;55;21013;-70
2024/02/01 11:41:56;;;;;;;4.55;2.53;;;13.40;75.30;;;;;;2519336;54;21477;-68
2024/02/01 11:44:23;;;;;;;4.72;2.78;;;13.40;75.40;;;;;;2286618;55;21698;-69
2024/02/01 11:46:51;;;;;;;4.25;2.53;;;13.40;75.40;;;;;;2509836;54;21511;-69
2024/02/01 11:49:20;;;;;;;3.90;2.30;;;13.40;75.40;;;;;;2520556;54;21681;-67
2024/02/01 11:52:13;;;;;;;4.68;2.35;;;13.50;75.50;;;;;;2519989;54;20964;-69
2024/02/01 11:54:46;;;;;;;4.53;2.35;;;13.50;75.50;;;;;;2518206;54;20960;-68
2024/02/01 11:57:17;;;;;;;6.28;2.75;;;13.50;75.50;;;;;;2520493;54;21009;-69
2024/02/01 11:59:44;;;;;;;4.78;2.80;;;13.50;75.30;;;;;;2287840;55;21009;-67
2024/02/01 12:02:11;;;;;;;4.60;2.87;;;13.50;75.30;;;;;;2281743;56;21001;-68
2024/02/01 12:04:38;;;;;;;5.05;2.90;;;13.60;75.40;;;;;;2516480;54;21005;-68
2024/02/01 12:07:05;;;;;;;5.40;2.75;;;13.60;75.20;;;;;;2282252;56;20946;-67
2024/02/01 12:09:33;;;;;;;5.35;3.22;;;13.60;75.10;;;;;;2286201;55;21423;-69
2024/02/01 12:11:59;;;;;;;5.20;3.17;;;13.70;75.10;;;;;;2519875;54;21001;-69
2024/02/01 12:14:26;;;;;;;5.70;3.22;;;13.60;75.00;;;;;;2520368;54;21336;-69
2024/02/01 12:16:56;;;;;;;5.43;2.90;;;13.60;75.00;;;;;;2286387;55;21458;-69
2024/02/01 12:19:24;;;;;;;5.80;3.17;;;13.60;74.90;;;;;;2286448;55;20933;-68
2024/02/01 12:21:54;;;;;;;5.65;3.10;;;13.60;74.90;;;;;;2286088;55;21505;-68
2024/02/01 12:24:31;;;;;;;7.35;4.12;;;13.70;75.00;;;;;;2286289;55;21534;-69
2024/02/01 12:26:57;;;;;;;7.28;3.80;;;13.70;74.80;;;;;;2286869;55;20953;-68
2024/02/01 12:29:26;;;;;;;11.60;4.97;;;13.70;75.20;;;;;;2286555;55;20933;-70
2024/02/01 12:31:52;;;;;;;9.40;5.30;;;13.70;75.30;;;;;;2519595;54;21000;-69
2024/02/01 12:34:19;;;;;;;10.10;5.72;;;13.70;75.30;;;;;;2279495;55;20990;-69
2024/02/01 12:36:48;;;;;;;7.90;5.03;;;13.70;75.40;;;;;;2281682;55;21328;-68
2024/02/01 12:39:15;;;;;;;10.40;5.45;;;13.70;75.30;;;;;;2519969;54;21477;-70
2024/02/01 12:41:45;;;;;;;8.00;4.50;;;13.80;75.30;;;;;;2286121;55;21549;-68
2024/02/01 12:44:15;;;;;;;8.77;4.35;;;13.80;75.90;;;;;;2285229;55;21036;-67
2024/02/01 12:46:50;;;;;;;8.77;4.07;;;13.80;75.20;;;;;;2286129;55;21257;-69
2024/02/01 12:49:18;;;;;;;7.68;3.87;;;13.80;75.20;;;;;;2519796;54;20937;-68
2024/02/01 12:51:47;;;;;;;7.55;4.10;;;13.90;75.40;;;;;;2518407;54;21017;-68
2024/02/01 12:54:15;;;;;;;6.32;3.45;;;13.80;75.30;;;;;;2282445;56;20992;-70
2024/02/01 12:56:42;;;;;;;6.95;3.47;;;13.80;75.30;;;;;;2282777;56;21211;-68
2024/02/01 12:59:10;;;;;;;8.20;3.80;;;13.90;75.40;;;;;;2523120;54;21644;-69
2024/02/01 13:01:38;;;;;;;10.63;4.78;;;13.90;75.50;;;;;;2520338;54;21327;-68
2024/02/01 13:04:05;;;;;;;7.80;3.97;;;13.90;75.40;;;;;;2520462;54;21380;-69
2024/02/01 13:06:31;;;;;;;8.13;4.07;;;13.90;75.40;;;;;;2514644;54;20994;-69
2024/02/01 13:08:58;;;;;;;7.22;3.75;;;13.90;75.30;;;;;;2282190;55;21494;-68
2024/02/01 13:11:28;;;;;;;6.28;3.28;;;14.00;75.40;;;;;;2519910;54;20953;-69
2024/02/01 13:13:57;;;;;;;6.05;2.97;;;14.00;75.40;;;;;;2284648;55;21273;-68
2024/02/01 13:16:27;;;;;;;6.32;3.55;;;14.00;75.40;;;;;;2520546;54;21018;-67
2024/02/01 13:18:57;;;;;;;6.00;3.22;;;14.00;75.40;;;;;;2519738;54;20986;-68
2024/02/01 13:21:24;;;;;;;6.12;3.35;;;14.00;75.40;;;;;;2286260;55;21716;-68
2024/02/01 13:23:51;;;;;;;6.55;3.83;;;14.00;75.20;;;;;;2284031;55;21018;-68
2024/02/01 13:26:17;;;;;;;7.62;3.90;;;14.10;75.20;;;;;;2284275;55;20929;-68
2024/02/01 13:28:44;;;;;;;5.72;3.62;;;14.00;75.20;;;;;;2518571;54;20941;-70
2024/02/01 13:31:13;;;;;;;6.45;3.72;;;14.10;75.20;;;;;;2286160;55;20957;-70
2024/02/01 13:33:40;;;;;;;5.85;3.42;;;14.10;75.00;;;;;;2519765;54;21592;-69
2024/02/01 13:36:08;;;;;;;5.72;3.42;;;14.10;75.10;;;;;;2286334;55;21005;-70